createdAt,value
2019-03-16T00:00:09.444Z,7.00
2019-03-16T00:02:38.492Z,7.10
2019-03-16T00:05:07.616Z,7.10
2019-03-16T00:07:36.658Z,7.00
2019-03-16T00:10:08.316Z,7.00
2019-03-16T00:12:37.288Z,6.90
2019-03-16T00:15:08.366Z,6.90
2019-03-16T00:17:37.430Z,6.90
2019-03-16T00:20:08.913Z,6.80
2019-03-16T00:22:37.837Z,6.80
2019-03-16T00:25:10.046Z,6.70
2019-03-16T00:27:38.891Z,6.70
2019-03-16T00:30:09.868Z,6.70
2019-03-16T00:32:40.453Z,6.70
2019-03-16T00:35:09.805Z,6.70
2019-03-16T00:37:39.113Z,6.70
2019-03-16T00:40:08.721Z,6.70
2019-03-16T00:42:37.735Z,6.80
2019-03-16T00:45:08.033Z,6.80
2019-03-16T00:47:36.874Z,6.80
2019-03-16T00:50:09.014Z,6.70
2019-03-16T00:52:37.665Z,6.60
2019-03-16T00:55:06.861Z,6.60
2019-03-16T00:57:35.810Z,6.60
2019-03-16T01:00:05.620Z,6.60
2019-03-16T01:02:34.637Z,6.60
2019-03-16T01:05:05.540Z,6.60
2019-03-16T01:07:34.621Z,6.60
2019-03-16T01:10:03.590Z,6.60
2019-03-16T01:12:32.475Z,6.60
2019-03-16T01:15:02.679Z,6.60
2019-03-16T01:17:31.569Z,6.60
2019-03-16T01:20:00.504Z,6.60
2019-03-16T01:22:31.055Z,6.60
2019-03-16T01:24:59.927Z,6.60
2019-03-16T01:27:28.775Z,6.60
2019-03-16T01:30:00.111Z,6.60
2019-03-16T01:32:40.125Z,6.60
2019-03-16T01:34:59.686Z,6.60
2019-03-16T01:37:28.537Z,6.50
2019-03-16T01:39:57.398Z,6.60
2019-03-16T01:42:29.455Z,6.60
2019-03-16T01:44:58.375Z,6.50
2019-03-16T01:47:27.245Z,6.50
2019-03-16T01:49:56.108Z,6.50
2019-03-16T01:52:25.222Z,6.40
2019-03-16T01:54:57.203Z,6.50
2019-03-16T01:57:26.159Z,6.50
2019-03-16T01:59:56.425Z,6.50
2019-03-16T02:02:28.434Z,6.60
2019-03-16T02:04:56.715Z,6.60
2019-03-16T02:07:25.642Z,6.50
2019-03-16T02:09:54.499Z,6.50
2019-03-16T02:12:27.199Z,6.50
2019-03-16T02:14:56.143Z,6.60
2019-03-16T02:17:28.544Z,6.50
2019-03-16T02:19:57.415Z,6.60
2019-03-16T02:22:29.909Z,6.60
2019-03-16T02:25:01.285Z,6.60
2019-03-16T02:27:30.322Z,6.60
2019-03-16T02:29:59.244Z,6.70
2019-03-16T02:32:31.031Z,6.70
2019-03-16T02:35:03.022Z,6.60
2019-03-16T02:37:31.970Z,6.60
2019-03-16T02:40:03.840Z,6.60
2019-03-16T02:42:32.709Z,6.60
2019-03-16T02:45:01.678Z,6.50
2019-03-16T02:47:30.762Z,6.50
2019-03-16T02:50:02.088Z,6.50
2019-03-16T02:52:30.721Z,6.40
2019-03-16T02:54:59.619Z,6.40
2019-03-16T02:57:30.529Z,6.40
2019-03-16T02:59:59.467Z,6.40
2019-03-16T03:02:28.591Z,6.40
2019-03-16T03:05:02.697Z,6.30
2019-03-16T03:07:31.554Z,6.40
2019-03-16T03:10:03.580Z,6.40
2019-03-16T03:12:33.619Z,6.40
2019-03-16T03:15:02.609Z,6.40
2019-03-16T03:17:31.856Z,6.40
2019-03-16T03:20:00.781Z,6.30
2019-03-16T03:22:29.677Z,6.30
2019-03-16T03:25:01.484Z,6.20
2019-03-16T03:27:30.758Z,6.20
2019-03-16T03:29:59.654Z,6.20
2019-03-16T03:32:28.650Z,6.20
2019-03-16T03:34:58.789Z,6.20
2019-03-16T03:37:27.762Z,6.20
2019-03-16T03:39:56.664Z,6.20
2019-03-16T03:42:25.846Z,6.20
2019-03-16T03:44:54.761Z,6.20
2019-03-16T03:47:23.643Z,6.20
2019-03-16T03:49:55.739Z,6.10
2019-03-16T03:52:24.683Z,6.10
2019-03-16T03:54:55.832Z,6.10
2019-03-16T03:57:24.657Z,6.10
2019-03-16T03:59:53.685Z,6.10
2019-03-16T04:02:22.715Z,6.10
2019-03-16T04:04:51.665Z,6.10
2019-03-16T04:07:20.835Z,6.10
2019-03-16T04:09:50.839Z,6.20
2019-03-16T04:12:19.854Z,6.30
2019-03-16T04:14:48.769Z,6.40
2019-03-16T04:17:17.789Z,6.40
2019-03-16T04:19:46.711Z,6.40
2019-03-16T04:22:17.432Z,6.40
2019-03-16T04:24:46.917Z,6.50
2019-03-16T04:27:16.872Z,6.50
2019-03-16T04:29:46.020Z,6.60
2019-03-16T04:32:15.281Z,6.60
2019-03-16T04:34:45.243Z,6.60
2019-03-16T04:37:15.242Z,6.50
2019-03-16T04:39:44.073Z,6.50
2019-03-16T04:42:13.073Z,6.50
2019-03-16T04:44:41.964Z,6.60
2019-03-16T04:47:10.869Z,6.60
2019-03-16T04:49:39.702Z,6.60
2019-03-16T04:52:10.130Z,6.60
2019-03-16T04:54:39.599Z,6.50
2019-03-16T04:57:08.486Z,6.50
2019-03-16T04:59:38.977Z,6.40
2019-03-16T05:02:08.041Z,6.40
2019-03-16T05:04:42.399Z,6.40
2019-03-16T05:07:10.628Z,6.40
2019-03-16T05:09:39.522Z,6.30
2019-03-16T05:12:09.803Z,6.30
2019-03-16T05:14:38.826Z,6.30
2019-03-16T05:17:07.736Z,6.20
2019-03-16T05:19:36.640Z,6.20
2019-03-16T05:22:05.467Z,6.30
2019-03-16T05:24:38.914Z,6.30
2019-03-16T05:27:07.795Z,6.30
2019-03-16T05:29:36.724Z,6.30
2019-03-16T05:32:05.788Z,6.30
2019-03-16T05:34:35.521Z,6.30
2019-03-16T05:37:06.582Z,6.30
2019-03-16T05:39:35.641Z,6.30
2019-03-16T05:42:05.420Z,6.40
2019-03-16T05:44:34.794Z,6.40
2019-03-16T05:47:06.290Z,6.40
2019-03-16T05:49:35.311Z,6.40
2019-03-16T05:52:07.305Z,6.40
2019-03-16T05:54:38.040Z,6.40
2019-03-16T05:57:07.102Z,6.40
2019-03-16T05:59:36.036Z,6.40
2019-03-16T06:02:07.644Z,6.50
2019-03-16T06:04:36.692Z,6.50
2019-03-16T06:07:05.660Z,6.50
2019-03-16T06:09:34.934Z,6.50
2019-03-16T06:12:03.747Z,6.60
2019-03-16T06:14:34.120Z,6.60
2019-03-16T06:17:04.845Z,6.70
2019-03-16T06:19:34.121Z,6.70
2019-03-16T06:22:03.167Z,6.70
2019-03-16T06:24:32.073Z,6.80
2019-03-16T06:27:01.024Z,6.90
2019-03-16T06:29:29.888Z,6.90
2019-03-16T06:31:58.791Z,7.00
2019-03-16T06:34:27.726Z,7.10
2019-03-16T06:36:56.737Z,7.10
2019-03-16T06:39:25.620Z,7.20
2019-03-16T06:41:54.559Z,7.30
2019-03-16T06:44:23.405Z,7.40
2019-03-16T06:46:54.034Z,7.50
2019-03-16T06:49:23.260Z,7.60
2019-03-16T06:51:52.172Z,7.60
2019-03-16T06:54:21.214Z,7.70
2019-03-16T06:56:50.041Z,7.70
2019-03-16T06:59:21.756Z,7.70
2019-03-16T07:01:50.627Z,7.80
2019-03-16T07:04:19.563Z,7.80
2019-03-16T07:06:48.490Z,7.90
2019-03-16T07:09:17.420Z,7.90
2019-03-16T07:11:46.392Z,7.90
2019-03-16T07:14:15.279Z,8.10
2019-03-16T07:16:44.284Z,8.20
2019-03-16T07:19:14.421Z,8.20
2019-03-16T07:21:43.249Z,8.20
2019-03-16T07:24:12.311Z,8.20
2019-03-16T07:26:41.180Z,8.20
2019-03-16T07:29:10.146Z,8.20
2019-03-16T07:31:39.017Z,8.20
2019-03-16T07:34:07.982Z,8.20
2019-03-16T07:36:36.890Z,8.30
2019-03-16T07:39:08.580Z,8.30
2019-03-16T07:41:38.977Z,8.30
2019-03-16T07:44:10.325Z,8.40
2019-03-16T07:46:41.325Z,8.50
2019-03-16T07:49:10.363Z,8.60
2019-03-16T07:51:39.243Z,8.70
2019-03-16T07:54:08.096Z,8.70
2019-03-16T07:56:37.069Z,8.70
2019-03-16T07:59:05.990Z,8.70
2019-03-16T08:01:35.037Z,8.80
2019-03-16T08:04:05.572Z,8.90
2019-03-16T08:06:34.508Z,8.90
2019-03-16T08:09:04.950Z,8.90
2019-03-16T08:11:34.051Z,9.00
2019-03-16T08:14:02.955Z,9.00
2019-03-16T08:16:32.133Z,9.10
2019-03-16T08:19:04.205Z,9.10
2019-03-16T08:21:33.175Z,9.20
2019-03-16T08:24:02.168Z,9.30
2019-03-16T08:26:32.182Z,9.30
2019-03-16T08:29:01.096Z,9.30
2019-03-16T08:31:30.859Z,9.20
2019-03-16T08:33:59.843Z,9.20
2019-03-16T08:36:28.827Z,9.10
2019-03-16T08:38:57.697Z,9.20
2019-03-16T08:41:29.481Z,9.20
2019-03-16T08:43:58.800Z,9.40
2019-03-16T08:46:27.818Z,9.50
2019-03-16T08:48:56.729Z,9.70
2019-03-16T08:51:25.717Z,9.90
2019-03-16T08:53:57.417Z,9.90
2019-03-16T08:56:26.409Z,9.80
2019-03-16T08:58:55.257Z,9.70
2019-03-16T09:01:24.305Z,9.70
2019-03-16T09:03:53.169Z,9.70
2019-03-16T09:06:22.179Z,9.70
2019-03-16T09:08:51.218Z,9.80
2019-03-16T09:11:20.171Z,9.80
2019-03-16T09:13:49.081Z,10.00
2019-03-16T09:16:18.110Z,10.00
2019-03-16T09:18:47.031Z,10.10
2019-03-16T09:21:16.048Z,10.20
2019-03-16T09:23:44.885Z,10.20
2019-03-16T09:26:13.911Z,10.30
2019-03-16T09:28:42.802Z,10.30
2019-03-16T09:31:11.769Z,10.40
2019-03-16T09:33:40.657Z,10.50
2019-03-16T09:36:09.684Z,10.60
2019-03-16T09:38:38.804Z,10.70
2019-03-16T09:41:09.818Z,10.70
2019-03-16T09:43:38.368Z,10.80
2019-03-16T09:46:07.320Z,10.80
2019-03-16T09:48:36.333Z,10.60
2019-03-16T09:51:05.288Z,10.60
2019-03-16T09:53:34.465Z,10.50
2019-03-16T09:56:03.398Z,10.40
2019-03-16T09:58:32.316Z,10.60
2019-03-16T10:01:01.387Z,10.70
2019-03-16T10:03:30.394Z,10.70
2019-03-16T10:05:59.283Z,10.70
2019-03-16T10:08:28.429Z,10.70
2019-03-16T10:10:57.372Z,10.80
2019-03-16T10:13:26.307Z,10.80
2019-03-16T10:15:55.220Z,10.70
2019-03-16T10:18:24.120Z,10.80
2019-03-16T10:20:53.183Z,10.80
2019-03-16T10:23:22.080Z,10.80
2019-03-16T10:25:51.038Z,10.70
2019-03-16T10:28:19.928Z,10.70
2019-03-16T10:30:49.232Z,10.70
2019-03-16T10:33:18.247Z,10.80
2019-03-16T10:35:49.892Z,10.90
2019-03-16T10:38:18.788Z,11.00
2019-03-16T10:40:47.676Z,10.90
2019-03-16T10:43:18.611Z,10.80
2019-03-16T10:45:50.344Z,10.80
2019-03-16T10:48:19.313Z,10.80
2019-03-16T10:50:48.163Z,10.90
2019-03-16T10:53:17.222Z,11.00
2019-03-16T10:55:46.080Z,11.00
2019-03-16T10:58:14.977Z,11.00
2019-03-16T11:00:43.775Z,11.00
2019-03-16T11:03:12.656Z,11.10
2019-03-16T11:05:41.496Z,11.00
2019-03-16T11:08:11.733Z,10.90
2019-03-16T11:10:42.331Z,10.80
2019-03-16T11:13:11.206Z,10.80
2019-03-16T11:15:40.282Z,10.70
2019-03-16T11:18:09.189Z,10.70
2019-03-16T11:20:38.035Z,10.80
2019-03-16T11:23:06.923Z,10.80
2019-03-16T11:25:35.833Z,10.90
2019-03-16T11:28:05.037Z,10.80
2019-03-16T11:30:33.976Z,10.60
2019-03-16T11:33:02.998Z,10.50
2019-03-16T11:35:32.027Z,10.50
2019-03-16T11:38:01.025Z,10.40
2019-03-16T11:40:29.971Z,10.20
2019-03-16T11:42:59.388Z,10.00
2019-03-16T11:45:28.362Z,9.90
2019-03-16T11:47:57.338Z,9.80
2019-03-16T11:50:26.337Z,9.80
2019-03-16T11:52:55.356Z,9.60
2019-03-16T11:55:24.267Z,9.50
2019-03-16T11:57:53.301Z,9.50
2019-03-16T12:00:23.207Z,9.50
2019-03-16T12:02:53.047Z,9.50
2019-03-16T12:05:22.188Z,9.50
2019-03-16T12:07:51.176Z,9.50
2019-03-16T12:10:20.218Z,9.50
2019-03-16T12:12:49.087Z,9.60
2019-03-16T12:15:18.034Z,9.60
2019-03-16T12:17:47.072Z,9.60
2019-03-16T12:20:18.027Z,9.50
2019-03-16T12:22:46.927Z,9.50
2019-03-16T12:25:17.794Z,9.50
2019-03-16T12:27:46.782Z,9.50
2019-03-16T12:30:16.036Z,9.40
2019-03-16T12:32:45.027Z,9.30
2019-03-16T12:35:14.046Z,9.20
2019-03-16T12:37:42.978Z,9.10
2019-03-16T12:40:11.978Z,9.10
2019-03-16T12:42:41.233Z,9.10
2019-03-16T12:45:12.645Z,9.10
2019-03-16T12:47:43.438Z,9.00
2019-03-16T12:50:12.572Z,9.00
2019-03-16T12:52:41.803Z,9.00
2019-03-16T12:55:10.922Z,8.90
2019-03-16T12:57:39.968Z,8.80
2019-03-16T13:00:11.032Z,8.70
2019-03-16T13:02:40.056Z,8.50
2019-03-16T13:05:09.401Z,8.50
2019-03-16T13:07:38.346Z,8.60
2019-03-16T13:10:10.466Z,8.60
2019-03-16T13:12:39.459Z,8.70
2019-03-16T13:15:08.490Z,8.70
2019-03-16T13:17:37.449Z,8.70
2019-03-16T13:20:06.810Z,8.70
2019-03-16T13:22:35.866Z,8.70
2019-03-16T13:25:05.241Z,8.60
2019-03-16T13:27:34.400Z,8.60
2019-03-16T13:30:06.314Z,8.60
2019-03-16T13:32:35.332Z,8.70
2019-03-16T13:35:08.859Z,8.80
2019-03-16T13:37:38.407Z,8.90
2019-03-16T13:40:11.649Z,8.90
2019-03-16T13:42:40.692Z,8.90
2019-03-16T13:45:09.777Z,8.80
2019-03-16T13:47:38.871Z,8.80
2019-03-16T13:50:14.107Z,8.80
2019-03-16T13:52:43.414Z,8.90
2019-03-16T13:55:12.514Z,9.00
2019-03-16T13:57:41.631Z,9.00
2019-03-16T14:00:12.502Z,8.90
2019-03-16T14:02:41.823Z,8.80
2019-03-16T14:05:10.835Z,8.80
2019-03-16T14:07:41.700Z,8.70
2019-03-16T14:10:13.407Z,8.70
2019-03-16T14:12:42.327Z,8.70
2019-03-16T14:15:16.707Z,8.60
2019-03-16T14:17:45.583Z,8.60
2019-03-16T14:20:15.201Z,8.60
2019-03-16T14:22:44.446Z,8.60
2019-03-16T14:25:14.071Z,8.50
2019-03-16T14:27:43.149Z,8.50
2019-03-16T14:30:25.677Z,8.50
2019-03-16T14:32:43.886Z,8.50
2019-03-16T14:35:12.997Z,8.50
2019-03-16T14:37:44.366Z,8.50
2019-03-16T14:40:13.686Z,8.50
2019-03-16T14:42:44.700Z,8.50
2019-03-16T14:45:16.036Z,8.30
2019-03-16T14:47:45.307Z,8.20
2019-03-16T14:50:16.734Z,8.10
2019-03-16T14:52:50.642Z,7.90
2019-03-16T14:55:19.200Z,7.80
2019-03-16T14:57:48.221Z,7.70
2019-03-16T15:00:17.616Z,7.70
2019-03-16T15:02:46.951Z,7.60
2019-03-16T15:05:16.123Z,7.50
2019-03-16T15:07:45.185Z,7.50
2019-03-16T15:10:14.386Z,7.50
2019-03-16T15:12:43.336Z,7.60
2019-03-16T15:15:12.705Z,7.60
2019-03-16T15:17:42.044Z,7.60
2019-03-16T15:20:11.084Z,7.50
2019-03-16T15:22:43.543Z,7.50
2019-03-16T15:25:15.275Z,7.40
2019-03-16T15:27:47.905Z,7.40
2019-03-16T15:30:17.283Z,7.30
2019-03-16T15:32:46.575Z,7.30
2019-03-16T15:35:15.514Z,7.30
2019-03-16T15:37:44.713Z,7.20
2019-03-16T15:40:13.905Z,7.10
2019-03-16T15:42:43.070Z,7.20
2019-03-16T15:45:14.314Z,7.20
2019-03-16T15:47:43.310Z,7.10
2019-03-16T15:50:12.291Z,7.10
2019-03-16T15:52:41.290Z,7.00
2019-03-16T15:55:10.522Z,7.00
2019-03-16T15:57:42.721Z,7.00
2019-03-16T16:00:13.458Z,7.00
2019-03-16T16:02:42.829Z,7.00
2019-03-16T16:05:11.900Z,7.00
2019-03-16T16:07:41.048Z,7.00
2019-03-16T16:10:10.744Z,7.00
2019-03-16T16:12:39.783Z,6.90
2019-03-16T16:15:09.454Z,6.90
2019-03-16T16:17:38.633Z,6.90
2019-03-16T16:20:08.194Z,6.90
2019-03-16T16:22:37.040Z,6.90
2019-03-16T16:25:06.229Z,6.90
2019-03-16T16:27:35.640Z,7.00
2019-03-16T16:30:05.757Z,7.00
2019-03-16T16:32:34.647Z,7.00
2019-03-16T16:35:04.613Z,7.10
2019-03-16T16:37:33.590Z,7.10
2019-03-16T16:40:02.997Z,7.10
2019-03-16T16:42:33.409Z,7.10
2019-03-16T16:45:02.517Z,7.10
2019-03-16T16:47:31.487Z,7.20
2019-03-16T16:50:00.458Z,7.20
2019-03-16T16:52:32.107Z,7.20
2019-03-16T16:55:01.057Z,7.20
2019-03-16T16:57:30.003Z,7.20
2019-03-16T17:00:00.240Z,7.20
2019-03-16T17:02:29.203Z,7.20
2019-03-16T17:04:59.678Z,7.20
2019-03-16T17:07:28.724Z,7.20
2019-03-16T17:09:57.806Z,7.20
2019-03-16T17:12:26.732Z,7.20
2019-03-16T17:14:55.830Z,7.20
2019-03-16T17:17:35.217Z,7.30
2019-03-16T17:20:01.773Z,7.30
2019-03-16T17:22:30.664Z,7.30
2019-03-16T17:24:59.764Z,7.30
2019-03-16T17:27:28.874Z,7.30
2019-03-16T17:29:57.998Z,7.40
2019-03-16T17:32:26.896Z,7.40
2019-03-16T17:34:57.122Z,7.30
2019-03-16T17:37:26.050Z,7.40
2019-03-16T17:39:55.369Z,7.40
2019-03-16T17:42:24.325Z,7.40
2019-03-16T17:44:56.270Z,7.40
2019-03-16T17:47:25.198Z,7.50
2019-03-16T17:49:54.160Z,7.50
2019-03-16T17:52:23.365Z,7.50
2019-03-16T17:54:52.484Z,7.50
2019-03-16T17:57:21.609Z,7.50
2019-03-16T17:59:50.626Z,7.50
2019-03-16T18:02:19.953Z,7.50
2019-03-16T18:04:49.083Z,7.50
2019-03-16T18:07:18.097Z,7.60
2019-03-16T18:09:47.152Z,7.60
2019-03-16T18:12:16.053Z,7.60
2019-03-16T18:14:45.015Z,7.60
2019-03-16T18:17:13.993Z,7.70
2019-03-16T18:19:43.045Z,7.70
2019-03-16T18:22:12.215Z,7.70
2019-03-16T18:24:47.616Z,7.80
2019-03-16T18:27:16.633Z,7.80
2019-03-16T18:29:46.002Z,7.80
2019-03-16T18:32:14.913Z,7.80
2019-03-16T18:34:43.945Z,7.90
2019-03-16T18:37:12.924Z,8.00
2019-03-16T18:39:41.861Z,8.00
2019-03-16T18:42:10.918Z,8.00
2019-03-16T18:44:40.001Z,8.00
2019-03-16T18:47:09.261Z,8.00
2019-03-16T18:49:38.631Z,8.10
2019-03-16T18:52:07.626Z,8.10
2019-03-16T18:54:36.590Z,8.10
2019-03-16T18:57:06.820Z,8.10
2019-03-16T18:59:35.787Z,8.20
2019-03-16T19:02:04.767Z,8.20
2019-03-16T19:04:33.855Z,8.20
2019-03-16T19:07:02.923Z,8.30
2019-03-16T19:09:31.876Z,8.30
2019-03-16T19:12:00.933Z,8.30
2019-03-16T19:14:29.830Z,8.30
2019-03-16T19:16:58.889Z,8.40
2019-03-16T19:19:27.960Z,8.40
2019-03-16T19:21:56.804Z,8.40
2019-03-16T19:24:25.733Z,8.50
2019-03-16T19:26:54.706Z,8.50
2019-03-16T19:29:23.728Z,8.50
2019-03-16T19:31:52.735Z,8.50
2019-03-16T19:34:22.799Z,8.50
2019-03-16T19:36:51.744Z,8.60
2019-03-16T19:39:20.683Z,8.60
2019-03-16T19:41:50.076Z,8.60
2019-03-16T19:44:19.377Z,8.70
2019-03-16T19:46:48.318Z,8.70
2019-03-16T19:49:17.526Z,8.80
2019-03-16T19:51:46.638Z,8.80
2019-03-16T19:54:16.734Z,8.90
2019-03-16T19:56:45.716Z,8.90
2019-03-16T19:59:14.816Z,8.90
2019-03-16T20:01:43.804Z,8.90
2019-03-16T20:04:13.508Z,9.00
2019-03-16T20:06:42.520Z,9.00
2019-03-16T20:09:11.523Z,9.00
2019-03-16T20:11:42.516Z,9.00
2019-03-16T20:14:11.544Z,9.00
2019-03-16T20:16:40.483Z,9.00
2019-03-16T20:19:09.447Z,9.00
2019-03-16T20:21:38.854Z,9.00
2019-03-16T20:24:08.849Z,9.00
2019-03-16T20:26:38.340Z,9.10
2019-03-16T20:29:08.043Z,9.10
2019-03-16T20:31:46.309Z,9.10
2019-03-16T20:34:07.882Z,9.10
2019-03-16T20:36:37.009Z,9.10
2019-03-16T20:39:07.895Z,9.10
2019-03-16T20:41:36.958Z,9.10
2019-03-16T20:44:06.175Z,9.10
2019-03-16T20:46:35.753Z,9.10
2019-03-16T20:49:04.700Z,9.20
2019-03-16T20:51:33.839Z,9.20
2019-03-16T20:54:02.803Z,9.20
2019-03-16T20:56:33.544Z,9.20
2019-03-16T20:59:02.478Z,9.20
2019-03-16T21:01:31.573Z,9.20
2019-03-16T21:04:00.972Z,9.20
2019-03-16T21:06:29.926Z,9.20
2019-03-16T21:09:04.748Z,9.20
2019-03-16T21:11:33.855Z,9.20
2019-03-16T21:14:02.819Z,9.20
2019-03-16T21:16:31.789Z,9.20
2019-03-16T21:19:00.677Z,9.30
2019-03-16T21:21:30.885Z,9.30
2019-03-16T21:23:59.858Z,9.30
2019-03-16T21:26:28.843Z,9.30
2019-03-16T21:28:57.807Z,9.30
2019-03-16T21:31:27.014Z,9.30
2019-03-16T21:33:56.311Z,9.40
2019-03-16T21:36:25.679Z,9.40
2019-03-16T21:38:55.899Z,9.40
2019-03-16T21:41:28.064Z,9.40
2019-03-16T21:43:57.016Z,9.40
2019-03-16T21:46:26.044Z,9.40
2019-03-16T21:48:57.907Z,9.40
2019-03-16T21:51:29.551Z,9.40
2019-03-16T21:54:02.746Z,9.50
2019-03-16T21:56:31.792Z,9.50
2019-03-16T21:59:00.723Z,9.50
2019-03-16T22:01:29.856Z,9.50
2019-03-16T22:03:58.988Z,9.50
2019-03-16T22:06:28.002Z,9.50
2019-03-16T22:08:57.510Z,9.50
2019-03-16T22:11:26.451Z,9.50
2019-03-16T22:13:55.517Z,9.50
2019-03-16T22:16:24.432Z,9.50
2019-03-16T22:18:54.048Z,9.50
2019-03-16T22:21:23.030Z,9.50
2019-03-16T22:23:52.028Z,9.50
2019-03-16T22:26:20.864Z,9.50
2019-03-16T22:28:49.706Z,9.50
2019-03-16T22:31:18.621Z,9.50
2019-03-16T22:33:54.341Z,9.50
2019-03-16T22:36:18.227Z,9.50
2019-03-16T22:38:47.260Z,9.60
2019-03-16T22:41:16.209Z,9.60
2019-03-16T22:43:45.083Z,9.60
2019-03-16T22:46:14.105Z,9.60
2019-03-16T22:48:43.034Z,9.60
2019-03-16T22:51:12.309Z,9.60
2019-03-16T22:53:41.393Z,9.60
2019-03-16T22:56:10.465Z,9.60
2019-03-16T22:58:39.510Z,9.60
2019-03-16T23:01:08.664Z,9.60
2019-03-16T23:03:37.705Z,9.60
2019-03-16T23:06:06.576Z,9.60
2019-03-16T23:08:37.555Z,9.60
2019-03-16T23:11:06.165Z,9.60
2019-03-16T23:13:36.665Z,9.60
2019-03-16T23:16:05.598Z,9.60
2019-03-16T23:18:34.574Z,9.60
2019-03-16T23:21:03.596Z,9.60
2019-03-16T23:23:32.464Z,9.70
2019-03-16T23:26:01.484Z,9.70
2019-03-16T23:28:30.487Z,9.60
2019-03-16T23:30:59.340Z,9.60
2019-03-16T23:33:28.397Z,9.60
2019-03-16T23:35:57.287Z,9.60
2019-03-16T23:38:26.233Z,9.60
2019-03-16T23:40:56.924Z,9.60
2019-03-16T23:43:26.003Z,9.60
2019-03-16T23:45:54.963Z,9.60
2019-03-16T23:48:23.874Z,9.60
2019-03-16T23:50:52.844Z,9.60
2019-03-16T23:53:21.670Z,9.60
2019-03-16T23:55:50.506Z,9.60
2019-03-16T23:58:19.433Z,9.60
